sensor_id;sensor_type;location;lat;lon;timestamp;pressure;altitude;pressure_sealevel;temperature;humidity
58698;BME280;44475;53.206;-6.106;2023-02-14T00:01:50;102551.25;;;23.36;48.80
58698;BME280;44475;53.206;-6.106;2023-02-14T00:04:17;102561.00;;;23.25;48.94
58698;BME280;44475;53.206;-6.106;2023-02-14T00:06:44;102557.81;;;23.17;48.81
58698;BME280;44475;53.206;-6.106;2023-02-14T00:09:15;102553.38;;;23.31;48.98
58698;BME280;44475;53.206;-6.106;2023-02-14T00:11:43;102566.16;;;23.30;48.61
58698;BME280;44475;53.206;-6.106;2023-02-14T00:14:10;102565.47;;;23.26;48.66
58698;BME280;44475;53.206;-6.106;2023-02-14T00:16:55;102557.06;;;23.29;48.67
58698;BME280;44475;53.206;-6.106;2023-02-14T00:19:22;102563.50;;;23.14;49.13
58698;BME280;44475;53.206;-6.106;2023-02-14T00:21:49;102555.47;;;23.11;48.95
58698;BME280;44475;53.206;-6.106;2023-02-14T00:24:19;102564.00;;;23.21;48.96
58698;BME280;44475;53.206;-6.106;2023-02-14T00:26:46;102553.94;;;23.21;48.90
58698;BME280;44475;53.206;-6.106;2023-02-14T00:29:21;102567.22;;;23.27;49.00
58698;BME280;44475;53.206;-6.106;2023-02-14T00:31:49;102568.19;;;23.26;48.54
58698;BME280;44475;53.206;-6.106;2023-02-14T00:34:16;102574.94;;;23.21;48.98
58698;BME280;44475;53.206;-6.106;2023-02-14T00:36:44;102581.56;;;23.16;49.08
58698;BME280;44475;53.206;-6.106;2023-02-14T00:39:11;102573.97;;;23.22;49.20
58698;BME280;44475;53.206;-6.106;2023-02-14T00:41:38;102572.13;;;23.22;49.19
58698;BME280;44475;53.206;-6.106;2023-02-14T00:44:05;102563.91;;;23.37;48.81
58698;BME280;44475;53.206;-6.106;2023-02-14T00:46:32;102559.59;;;23.18;49.06
58698;BME280;44475;53.206;-6.106;2023-02-14T00:48:58;102560.56;;;23.17;49.07
58698;BME280;44475;53.206;-6.106;2023-02-14T00:51:24;102554.03;;;23.19;49.25
58698;BME280;44475;53.206;-6.106;2023-02-14T00:53:51;102561.19;;;23.22;48.98
58698;BME280;44475;53.206;-6.106;2023-02-14T00:56:18;102554.66;;;23.25;49.12
58698;BME280;44475;53.206;-6.106;2023-02-14T00:58:45;102552.09;;;23.22;49.02
58698;BME280;44475;53.206;-6.106;2023-02-14T01:01:13;102544.19;;;23.32;48.96
58698;BME280;44475;53.206;-6.106;2023-02-14T01:03:39;102545.97;;;23.33;48.95
58698;BME280;44475;53.206;-6.106;2023-02-14T01:06:06;102548.06;;;23.13;49.53
58698;BME280;44475;53.206;-6.106;2023-02-14T01:08:33;102539.16;;;23.09;49.33
58698;BME280;44475;53.206;-6.106;2023-02-14T01:11:07;102548.94;;;23.13;49.42
58698;BME280;44475;53.206;-6.106;2023-02-14T01:13:33;102542.81;;;23.24;48.87
58698;BME280;44475;53.206;-6.106;2023-02-14T01:16:05;102545.13;;;23.16;49.08
58698;BME280;44475;53.206;-6.106;2023-02-14T01:18:33;102544.06;;;23.18;49.25
58698;BME280;44475;53.206;-6.106;2023-02-14T01:21:29;102531.88;;;23.24;48.97
58698;BME280;44475;53.206;-6.106;2023-02-14T01:23:58;102535.84;;;23.18;49.18
58698;BME280;44475;53.206;-6.106;2023-02-14T01:26:25;102536.69;;;23.35;48.92
58698;BME280;44475;53.206;-6.106;2023-02-14T01:28:52;102529.25;;;23.23;49.01
58698;BME280;44475;53.206;-6.106;2023-02-14T01:31:21;102527.47;;;23.22;48.97
58698;BME280;44475;53.206;-6.106;2023-02-14T01:33:48;102532.81;;;23.08;49.04
58698;BME280;44475;53.206;-6.106;2023-02-14T01:38:45;102530.78;;;23.27;49.03
58698;BME280;44475;53.206;-6.106;2023-02-14T01:41:12;102529.91;;;23.26;48.94
58698;BME280;44475;53.206;-6.106;2023-02-14T01:46:24;102519.44;;;23.04;49.52
58698;BME280;44475;53.206;-6.106;2023-02-14T01:48:56;102514.88;;;23.19;49.33
58698;BME280;44475;53.206;-6.106;2023-02-14T01:51:24;102512.00;;;23.06;49.57
58698;BME280;44475;53.206;-6.106;2023-02-14T01:53:53;102507.84;;;23.15;49.27
58698;BME280;44475;53.206;-6.106;2023-02-14T01:56:26;102493.38;;;23.27;48.71
58698;BME280;44475;53.206;-6.106;2023-02-14T01:58:56;102500.31;;;23.18;49.37
58698;BME280;44475;53.206;-6.106;2023-02-14T02:01:23;102506.25;;;23.11;49.22
58698;BME280;44475;53.206;-6.106;2023-02-14T02:03:53;102506.34;;;23.09;49.34
58698;BME280;44475;53.206;-6.106;2023-02-14T02:06:30;102506.03;;;22.99;49.62
58698;BME280;44475;53.206;-6.106;2023-02-14T02:09:18;102501.81;;;23.24;48.93
58698;BME280;44475;53.206;-6.106;2023-02-14T02:11:46;102500.84;;;23.25;49.15
58698;BME280;44475;53.206;-6.106;2023-02-14T02:14:20;102496.72;;;23.33;49.04
58698;BME280;44475;53.206;-6.106;2023-02-14T02:26:06;102508.22;;;23.08;49.36
58698;BME280;44475;53.206;-6.106;2023-02-14T02:37:11;102498.75;;;23.14;49.05
58698;BME280;44475;53.206;-6.106;2023-02-14T02:40:02;102493.56;;;23.09;49.46
58698;BME280;44475;53.206;-6.106;2023-02-14T02:45:46;102505.56;;;23.07;49.50
58698;BME280;44475;53.206;-6.106;2023-02-14T02:48:55;102496.91;;;23.15;49.12
58698;BME280;44475;53.206;-6.106;2023-02-14T02:52:08;102492.19;;;23.17;49.14
58698;BME280;44475;53.206;-6.106;2023-02-14T02:54:52;102492.00;;;23.05;49.32
58698;BME280;44475;53.206;-6.106;2023-02-14T02:57:28;102487.78;;;22.99;49.55
58698;BME280;44475;53.206;-6.106;2023-02-14T02:59:58;102477.88;;;23.13;49.07
58698;BME280;44475;53.206;-6.106;2023-02-14T03:02:35;102471.97;;;23.05;49.11
58698;BME280;44475;53.206;-6.106;2023-02-14T03:05:24;102468.38;;;23.19;49.19
58698;BME280;44475;53.206;-6.106;2023-02-14T03:07:52;102461.06;;;23.19;48.92
58698;BME280;44475;53.206;-6.106;2023-02-14T03:26:26;102450.03;;;23.21;49.03
58698;BME280;44475;53.206;-6.106;2023-02-14T03:32:02;102456.44;;;23.05;49.23
58698;BME280;44475;53.206;-6.106;2023-02-14T03:34:50;102444.97;;;23.15;49.10
58698;BME280;44475;53.206;-6.106;2023-02-14T03:37:42;102426.97;;;23.11;48.90
58698;BME280;44475;53.206;-6.106;2023-02-14T03:42:54;102433.22;;;23.13;49.35
58698;BME280;44475;53.206;-6.106;2023-02-14T03:45:28;102426.97;;;23.11;49.09
58698;BME280;44475;53.206;-6.106;2023-02-14T03:48:01;102425.63;;;23.03;49.30
58698;BME280;44475;53.206;-6.106;2023-02-14T03:50:30;102428.22;;;23.05;49.61
58698;BME280;44475;53.206;-6.106;2023-02-14T03:52:58;102415.44;;;23.05;49.42
58698;BME280;44475;53.206;-6.106;2023-02-14T03:55:43;102408.41;;;23.16;49.06
58698;BME280;44475;53.206;-6.106;2023-02-14T03:58:33;102418.78;;;23.11;48.97
58698;BME280;44475;53.206;-6.106;2023-02-14T04:01:20;102407.63;;;22.99;49.43
58698;BME280;44475;53.206;-6.106;2023-02-14T04:03:49;102406.06;;;23.09;49.13
58698;BME280;44475;53.206;-6.106;2023-02-14T04:06:18;102400.72;;;22.93;49.68
58698;BME280;44475;53.206;-6.106;2023-02-14T04:08:45;102402.28;;;23.12;49.39
58698;BME280;44475;53.206;-6.106;2023-02-14T04:11:11;102405.50;;;23.04;49.52
58698;BME280;44475;53.206;-6.106;2023-02-14T04:13:38;102395.16;;;23.09;49.49
58698;BME280;44475;53.206;-6.106;2023-02-14T04:16:05;102401.25;;;22.84;49.89
58698;BME280;44475;53.206;-6.106;2023-02-14T04:18:31;102399.03;;;23.05;49.64
58698;BME280;44475;53.206;-6.106;2023-02-14T04:21:16;102394.56;;;22.89;49.96
58698;BME280;44475;53.206;-6.106;2023-02-14T04:23:43;102397.84;;;22.95;49.55
58698;BME280;44475;53.206;-6.106;2023-02-14T04:26:09;102405.88;;;22.98;49.74
58698;BME280;44475;53.206;-6.106;2023-02-14T04:28:35;102410.38;;;22.99;49.72
58698;BME280;44475;53.206;-6.106;2023-02-14T04:31:03;102404.50;;;22.91;49.72
58698;BME280;44475;53.206;-6.106;2023-02-14T04:33:30;102403.94;;;23.00;49.78
58698;BME280;44475;53.206;-6.106;2023-02-14T04:35:56;102403.63;;;23.05;49.63
58698;BME280;44475;53.206;-6.106;2023-02-14T04:38:22;102403.75;;;23.03;49.65
58698;BME280;44475;53.206;-6.106;2023-02-14T04:40:49;102406.56;;;23.02;49.93
58698;BME280;44475;53.206;-6.106;2023-02-14T04:43:15;102406.75;;;22.98;49.76
58698;BME280;44475;53.206;-6.106;2023-02-14T04:45:42;102403.22;;;22.96;49.81
58698;BME280;44475;53.206;-6.106;2023-02-14T04:48:08;102408.03;;;23.07;49.32
58698;BME280;44475;53.206;-6.106;2023-02-14T04:50:34;102397.84;;;22.95;49.64
58698;BME280;44475;53.206;-6.106;2023-02-14T04:53:01;102413.31;;;23.11;49.37
58698;BME280;44475;53.206;-6.106;2023-02-14T04:55:27;102405.47;;;22.89;49.87
58698;BME280;44475;53.206;-6.106;2023-02-14T04:57:53;102398.88;;;22.94;49.68
58698;BME280;44475;53.206;-6.106;2023-02-14T05:00:20;102409.59;;;22.97;49.58
58698;BME280;44475;53.206;-6.106;2023-02-14T05:02:47;102409.78;;;23.08;49.38
58698;BME280;44475;53.206;-6.106;2023-02-14T05:05:13;102404.91;;;22.99;49.85
58698;BME280;44475;53.206;-6.106;2023-02-14T05:07:39;102390.66;;;23.08;49.34
58698;BME280;44475;53.206;-6.106;2023-02-14T05:10:07;102398.75;;;22.95;49.57
58698;BME280;44475;53.206;-6.106;2023-02-14T05:12:34;102391.63;;;22.93;49.96
58698;BME280;44475;53.206;-6.106;2023-02-14T05:15:00;102402.16;;;22.99;49.67
58698;BME280;44475;53.206;-6.106;2023-02-14T05:17:26;102381.47;;;23.09;49.14
58698;BME280;44475;53.206;-6.106;2023-02-14T05:19:53;102386.56;;;23.01;49.78
58698;BME280;44475;53.206;-6.106;2023-02-14T05:22:19;102389.47;;;22.98;49.65
58698;BME280;44475;53.206;-6.106;2023-02-14T05:24:45;102397.31;;;23.04;49.40
58698;BME280;44475;53.206;-6.106;2023-02-14T05:27:11;102383.72;;;22.88;49.61
58698;BME280;44475;53.206;-6.106;2023-02-14T05:29:37;102380.88;;;22.89;49.73
58698;BME280;44475;53.206;-6.106;2023-02-14T05:32:04;102373.97;;;22.98;49.36
58698;BME280;44475;53.206;-6.106;2023-02-14T05:34:30;102370.94;;;22.88;49.75
58698;BME280;44475;53.206;-6.106;2023-02-14T05:36:56;102368.97;;;22.91;49.76
58698;BME280;44475;53.206;-6.106;2023-02-14T05:39:22;102354.03;;;22.96;49.60
58698;BME280;44475;53.206;-6.106;2023-02-14T05:41:49;102348.78;;;22.93;49.49
58698;BME280;44475;53.206;-6.106;2023-02-14T05:44:15;102348.66;;;22.95;49.69
58698;BME280;44475;53.206;-6.106;2023-02-14T05:46:41;102352.09;;;22.98;49.52
58698;BME280;44475;53.206;-6.106;2023-02-14T05:49:07;102338.00;;;23.05;49.26
58698;BME280;44475;53.206;-6.106;2023-02-14T05:51:34;102330.91;;;23.02;49.65
58698;BME280;44475;53.206;-6.106;2023-02-14T05:54:00;102331.47;;;23.07;49.00
58698;BME280;44475;53.206;-6.106;2023-02-14T05:56:26;102326.88;;;23.08;49.28
58698;BME280;44475;53.206;-6.106;2023-02-14T05:58:52;102325.91;;;22.94;49.58
58698;BME280;44475;53.206;-6.106;2023-02-14T06:01:19;102324.47;;;23.03;49.05
58698;BME280;44475;53.206;-6.106;2023-02-14T06:03:45;102320.75;;;22.89;49.26
58698;BME280;44475;53.206;-6.106;2023-02-14T06:06:11;102331.88;;;22.86;49.53
58698;BME280;44475;53.206;-6.106;2023-02-14T06:08:37;102328.72;;;22.78;49.69
58698;BME280;44475;53.206;-6.106;2023-02-14T06:11:04;102337.34;;;22.86;49.80
58698;BME280;44475;53.206;-6.106;2023-02-14T06:13:30;102334.44;;;22.89;49.81
58698;BME280;44475;53.206;-6.106;2023-02-14T06:15:56;102343.00;;;22.98;49.16
58698;BME280;44475;53.206;-6.106;2023-02-14T06:18:22;102323.78;;;22.99;49.23
58698;BME280;44475;53.206;-6.106;2023-02-14T06:20:53;102332.38;;;22.93;49.26
58698;BME280;44475;53.206;-6.106;2023-02-14T06:23:20;102333.25;;;23.08;49.17
58698;BME280;44475;53.206;-6.106;2023-02-14T06:25:46;102314.50;;;22.87;49.73
58698;BME280;44475;53.206;-6.106;2023-02-14T06:28:12;102323.50;;;23.04;49.07
58698;BME280;44475;53.206;-6.106;2023-02-14T06:30:39;102318.41;;;22.98;49.27
58698;BME280;44475;53.206;-6.106;2023-02-14T06:33:05;102325.06;;;22.94;49.33
58698;BME280;44475;53.206;-6.106;2023-02-14T06:35:31;102323.69;;;23.01;49.02
58698;BME280;44475;53.206;-6.106;2023-02-14T06:37:57;102337.03;;;23.21;48.66
58698;BME280;44475;53.206;-6.106;2023-02-14T06:40:23;102340.75;;;23.05;49.08
58698;BME280;44475;53.206;-6.106;2023-02-14T06:42:50;102347.31;;;23.02;48.99
58698;BME280;44475;53.206;-6.106;2023-02-14T06:45:16;102335.78;;;22.97;49.30
58698;BME280;44475;53.206;-6.106;2023-02-14T06:47:43;102338.81;;;22.92;49.38
58698;BME280;44475;53.206;-6.106;2023-02-14T06:50:10;102331.38;;;22.94;49.29
58698;BME280;44475;53.206;-6.106;2023-02-14T06:52:36;102342.44;;;22.93;49.26
58698;BME280;44475;53.206;-6.106;2023-02-14T06:55:03;102340.56;;;23.08;48.75
58698;BME280;44475;53.206;-6.106;2023-02-14T06:57:29;102341.16;;;23.13;48.95
58698;BME280;44475;53.206;-6.106;2023-02-14T06:59:55;102328.56;;;23.11;48.83
58698;BME280;44475;53.206;-6.106;2023-02-14T07:02:21;102337.72;;;23.09;49.07
58698;BME280;44475;53.206;-6.106;2023-02-14T07:04:48;102342.44;;;22.93;49.27
58698;BME280;44475;53.206;-6.106;2023-02-14T07:07:14;102340.66;;;23.06;48.85
58698;BME280;44475;53.206;-6.106;2023-02-14T07:09:40;102343.09;;;23.11;48.71
58698;BME280;44475;53.206;-6.106;2023-02-14T07:12:07;102342.31;;;23.09;49.07
58698;BME280;44475;53.206;-6.106;2023-02-14T07:14:33;102345.66;;;22.99;49.09
58698;BME280;44475;53.206;-6.106;2023-02-14T07:16:59;102357.97;;;22.92;49.34
58698;BME280;44475;53.206;-6.106;2023-02-14T07:19:25;102353.56;;;22.89;49.29
58698;BME280;44475;53.206;-6.106;2023-02-14T07:21:51;102370.84;;;22.90;49.19
58698;BME280;44475;53.206;-6.106;2023-02-14T07:24:18;102370.50;;;22.80;49.66
58698;BME280;44475;53.206;-6.106;2023-02-14T07:26:44;102374.38;;;22.76;49.74
58698;BME280;44475;53.206;-6.106;2023-02-14T07:29:11;102367.88;;;22.78;49.30
58698;BME280;44475;53.206;-6.106;2023-02-14T07:31:37;102374.72;;;22.86;49.60
58698;BME280;44475;53.206;-6.106;2023-02-14T07:34:03;102374.81;;;22.84;49.55
58698;BME280;44475;53.206;-6.106;2023-02-14T07:36:29;102363.34;;;22.94;49.24
58698;BME280;44475;53.206;-6.106;2023-02-14T07:38:56;102371.22;;;23.13;48.65
58698;BME280;44475;53.206;-6.106;2023-02-14T07:41:23;102373.00;;;23.14;48.50
58698;BME280;44475;53.206;-6.106;2023-02-14T07:43:49;102375.50;;;23.17;48.48
58698;BME280;44475;53.206;-6.106;2023-02-14T07:46:16;102374.25;;;23.08;48.45
58698;BME280;44475;53.206;-6.106;2023-02-14T07:48:43;102376.00;;;22.95;49.08
58698;BME280;44475;53.206;-6.106;2023-02-14T07:51:09;102373.47;;;23.06;48.81
58698;BME280;44475;53.206;-6.106;2023-02-14T07:53:36;102378.19;;;23.04;48.89
58698;BME280;44475;53.206;-6.106;2023-02-14T07:56:02;102380.13;;;23.02;48.80
58698;BME280;44475;53.206;-6.106;2023-02-14T07:58:28;102389.28;;;23.16;48.60
58698;BME280;44475;53.206;-6.106;2023-02-14T08:00:55;102389.50;;;23.13;48.50
58698;BME280;44475;53.206;-6.106;2023-02-14T08:03:21;102393.56;;;23.05;48.74
58698;BME280;44475;53.206;-6.106;2023-02-14T08:05:50;102383.81;;;23.01;48.75
58698;BME280;44475;53.206;-6.106;2023-02-14T08:08:27;102375.03;;;22.96;49.24
58698;BME280;44475;53.206;-6.106;2023-02-14T08:10:54;102384.19;;;22.95;49.25
58698;BME280;44475;53.206;-6.106;2023-02-14T08:13:20;102377.97;;;22.93;48.93
58698;BME280;44475;53.206;-6.106;2023-02-14T08:15:47;102398.56;;;22.98;49.34
58698;BME280;44475;53.206;-6.106;2023-02-14T08:18:37;102399.44;;;22.99;49.09
58698;BME280;44475;53.206;-6.106;2023-02-14T08:21:05;102396.31;;;23.05;48.99
58698;BME280;44475;53.206;-6.106;2023-02-14T08:23:32;102403.34;;;23.09;48.79
58698;BME280;44475;53.206;-6.106;2023-02-14T08:25:59;102404.63;;;23.04;48.98
58698;BME280;44475;53.206;-6.106;2023-02-14T08:28:25;102405.28;;;23.07;49.06
58698;BME280;44475;53.206;-6.106;2023-02-14T08:30:52;102413.31;;;23.11;48.88
58698;BME280;44475;53.206;-6.106;2023-02-14T08:33:19;102416.03;;;23.11;48.71
58698;BME280;44475;53.206;-6.106;2023-02-14T08:35:46;102371.03;;;22.87;49.01
58698;BME280;44475;53.206;-6.106;2023-02-14T08:38:12;102406.06;;;23.09;48.82
58698;BME280;44475;53.206;-6.106;2023-02-14T08:40:38;102400.41;;;22.98;49.14
58698;BME280;44475;53.206;-6.106;2023-02-14T08:43:05;102402.38;;;23.11;49.04
58698;BME280;44475;53.206;-6.106;2023-02-14T08:45:32;102400.72;;;23.08;48.86
58698;BME280;44475;53.206;-6.106;2023-02-14T08:48:09;102396.31;;;23.05;49.08
58698;BME280;44475;53.206;-6.106;2023-02-14T08:50:37;102397.88;;;23.09;49.03
58698;BME280;44475;53.206;-6.106;2023-02-14T08:53:11;102400.63;;;23.09;49.08
58698;BME280;44475;53.206;-6.106;2023-02-14T08:55:38;102385.06;;;22.95;49.35
58698;BME280;44475;53.206;-6.106;2023-02-14T08:58:05;102394.06;;;23.12;48.83
58698;BME280;44475;53.206;-6.106;2023-02-14T09:00:32;102377.84;;;23.09;48.86
58698;BME280;44475;53.206;-6.106;2023-02-14T09:02:59;102388.63;;;23.12;49.08
58698;BME280;44475;53.206;-6.106;2023-02-14T09:05:26;102386.25;;;23.06;49.05
58698;BME280;44475;53.206;-6.106;2023-02-14T09:07:52;102386.47;;;23.03;49.01
58698;BME280;44475;53.206;-6.106;2023-02-14T09:10:21;102393.69;;;23.04;48.96
58698;BME280;44475;53.206;-6.106;2023-02-14T09:12:47;102387.72;;;23.12;48.72
58698;BME280;44475;53.206;-6.106;2023-02-14T09:15:14;102388.63;;;23.12;48.80
58698;BME280;44475;53.206;-6.106;2023-02-14T09:17:40;102398.38;;;23.02;49.29
58698;BME280;44475;53.206;-6.106;2023-02-14T09:20:09;102399.63;;;23.11;48.91
58698;BME280;44475;53.206;-6.106;2023-02-14T09:22:36;102390.16;;;23.16;48.67
58698;BME280;44475;53.206;-6.106;2023-02-14T09:25:03;102388.00;;;23.07;49.17
58698;BME280;44475;53.206;-6.106;2023-02-14T09:27:30;102399.44;;;22.99;49.17
58698;BME280;44475;53.206;-6.106;2023-02-14T09:29:57;102393.69;;;23.04;49.14
58698;BME280;44475;53.206;-6.106;2023-02-14T09:32:23;102398.75;;;23.10;48.83
58698;BME280;44475;53.206;-6.106;2023-02-14T09:34:51;102392.13;;;23.14;48.91
58698;BME280;44475;53.206;-6.106;2023-02-14T09:37:17;102384.81;;;23.15;48.88
58698;BME280;44475;53.206;-6.106;2023-02-14T09:39:43;102360.19;;;23.00;48.82
58698;BME280;44475;53.206;-6.106;2023-02-14T09:45:04;102398.88;;;23.23;48.43
58698;BME280;44475;53.206;-6.106;2023-02-14T09:50:09;102403.81;;;23.16;48.48
58698;BME280;44475;53.206;-6.106;2023-02-14T09:52:38;102393.47;;;23.07;49.00
58698;BME280;44475;53.206;-6.106;2023-02-14T09:55:13;102398.56;;;23.13;48.62
58698;BME280;44475;53.206;-6.106;2023-02-14T10:00:31;102385.97;;;23.11;48.40
58698;BME280;44475;53.206;-6.106;2023-02-14T10:05:55;102394.56;;;23.19;48.42
58698;BME280;44475;53.206;-6.106;2023-02-14T10:11:17;102393.47;;;23.07;48.96
58698;BME280;44475;53.206;-6.106;2023-02-14T10:16:32;102402.19;;;23.14;48.26
58698;BME280;44475;53.206;-6.106;2023-02-14T10:21:52;102397.47;;;23.16;48.49
58698;BME280;44475;53.206;-6.106;2023-02-14T10:26:50;102395.44;;;23.34;48.16
58698;BME280;44475;53.206;-6.106;2023-02-14T10:29:18;102403.34;;;23.09;48.72
58698;BME280;44475;53.206;-6.106;2023-02-14T10:31:59;102397.47;;;23.16;48.16
58698;BME280;44475;53.206;-6.106;2023-02-14T10:34:48;102402.66;;;23.21;48.42
58698;BME280;44475;53.206;-6.106;2023-02-14T10:40:00;102410.78;;;23.22;48.06
58698;BME280;44475;53.206;-6.106;2023-02-14T10:42:40;102416.06;;;23.25;48.10
58698;BME280;44475;53.206;-6.106;2023-02-14T10:51:13;102412.72;;;23.35;47.66
58698;BME280;44475;53.206;-6.106;2023-02-14T11:02:01;102394.38;;;23.22;48.12
58698;BME280;44475;53.206;-6.106;2023-02-14T11:04:27;102409.31;;;23.31;47.96
58698;BME280;44475;53.206;-6.106;2023-02-14T11:06:56;102402.66;;;23.35;47.78
58698;BME280;44475;53.206;-6.106;2023-02-14T11:09:22;102396.41;;;23.18;48.13
58698;BME280;44475;53.206;-6.106;2023-02-14T11:11:59;102414.47;;;23.21;48.18
58698;BME280;44475;53.206;-6.106;2023-02-14T11:14:27;102403.34;;;23.24;48.01
58698;BME280;44475;53.206;-6.106;2023-02-14T11:16:56;102399.94;;;23.35;47.72
58698;BME280;44475;53.206;-6.106;2023-02-14T11:21:56;102398.66;;;23.26;47.89
58698;BME280;44475;53.206;-6.106;2023-02-14T11:24:34;102402.16;;;23.28;47.96
58698;BME280;44475;53.206;-6.106;2023-02-14T11:32:29;102399.44;;;23.43;47.57
58698;BME280;44475;53.206;-6.106;2023-02-14T11:35:17;102389.56;;;23.41;47.39
58698;BME280;44475;53.206;-6.106;2023-02-14T11:37:52;102384.19;;;23.39;47.67
58698;BME280;44475;53.206;-6.106;2023-02-14T11:42:59;102382.59;;;23.49;47.27
58698;BME280;44475;53.206;-6.106;2023-02-14T11:45:32;102385.72;;;23.58;47.41
58698;BME280;44475;53.206;-6.106;2023-02-14T11:50:56;102378.19;;;23.62;46.91
58698;BME280;44475;53.206;-6.106;2023-02-14T11:54:12;102373.06;;;23.85;46.49
58698;BME280;44475;53.206;-6.106;2023-02-14T11:56:13;102372.91;;;23.73;46.22
58698;BME280;44475;53.206;-6.106;2023-02-14T11:58:49;102367.63;;;23.70;46.23
58698;BME280;44475;53.206;-6.106;2023-02-14T12:01:35;102364.28;;;23.79;46.33
58698;BME280;44475;53.206;-6.106;2023-02-14T12:04:16;102352.00;;;23.72;46.43
58698;BME280;44475;53.206;-6.106;2023-02-14T12:06:44;102358.72;;;23.81;45.70
58698;BME280;44475;53.206;-6.106;2023-02-14T12:12:00;102341.50;;;23.79;45.59
58698;BME280;44475;53.206;-6.106;2023-02-14T12:14:33;102342.28;;;23.81;45.52
58698;BME280;44475;53.206;-6.106;2023-02-14T12:17:33;102346.25;;;23.90;44.97
58698;BME280;44475;53.206;-6.106;2023-02-14T12:20:15;102334.84;;;23.83;45.26
58698;BME280;44475;53.206;-6.106;2023-02-14T12:23:08;102336.09;;;23.92;44.73
58698;BME280;44475;53.206;-6.106;2023-02-14T12:25:49;102336.03;;;23.79;44.97
58698;BME280;44475;53.206;-6.106;2023-02-14T12:28:30;102341.06;;;23.57;45.44
58698;BME280;44475;53.206;-6.106;2023-02-14T12:31:08;102331.69;;;23.47;46.05
58698;BME280;44475;53.206;-6.106;2023-02-14T12:33:35;102324.00;;;23.54;46.18
58698;BME280;44475;53.206;-6.106;2023-02-14T12:38:52;102337.34;;;23.73;46.18
58698;BME280;44475;53.206;-6.106;2023-02-14T12:43:47;102331.88;;;23.58;46.55
58698;BME280;44475;53.206;-6.106;2023-02-14T12:52:10;102310.13;;;23.42;47.05
58698;BME280;44475;53.206;-6.106;2023-02-14T12:54:56;102312.09;;;23.40;47.24
58698;BME280;44475;53.206;-6.106;2023-02-14T12:57:51;102309.00;;;23.32;47.63
58698;BME280;44475;53.206;-6.106;2023-02-14T13:13:57;102303.78;;;23.42;47.58
58698;BME280;44475;53.206;-6.106;2023-02-14T13:21:53;102297.63;;;23.38;47.96
58698;BME280;44475;53.206;-6.106;2023-02-14T13:24:23;102286.84;;;23.49;47.74
58698;BME280;44475;53.206;-6.106;2023-02-14T13:26:59;102295.84;;;23.52;47.67
58698;BME280;44475;53.206;-6.106;2023-02-14T13:29:32;102295.94;;;23.50;47.63
58698;BME280;44475;53.206;-6.106;2023-02-14T13:32:02;102297.72;;;23.36;48.21
58698;BME280;44475;53.206;-6.106;2023-02-14T13:34:40;102285.72;;;23.39;47.82
58698;BME280;44475;53.206;-6.106;2023-02-14T13:37:11;102276.34;;;23.43;47.69
58698;BME280;44475;53.206;-6.106;2023-02-14T13:39:43;102272.19;;;23.51;47.77
58698;BME280;44475;53.206;-6.106;2023-02-14T13:42:11;102268.06;;;23.58;47.35
58698;BME280;44475;53.206;-6.106;2023-02-14T13:44:48;102263.22;;;23.48;47.48
58698;BME280;44475;53.206;-6.106;2023-02-14T13:49:54;102257.97;;;23.45;47.82
58698;BME280;44475;53.206;-6.106;2023-02-14T13:55:16;102271.34;;;23.78;46.89
58698;BME280;44475;53.206;-6.106;2023-02-14T13:57:44;102262.13;;;23.79;46.71
58698;BME280;44475;53.206;-6.106;2023-02-14T14:02:53;102260.66;;;23.88;46.56
58698;BME280;44475;53.206;-6.106;2023-02-14T14:10:51;102243.44;;;23.86;46.67
58698;BME280;44475;53.206;-6.106;2023-02-14T14:18:50;102256.47;;;23.82;46.34
58698;BME280;44475;53.206;-6.106;2023-02-14T14:21:29;102258.22;;;23.83;46.67
58698;BME280;44475;53.206;-6.106;2023-02-14T14:26:48;102239.09;;;23.96;46.37
58698;BME280;44475;53.206;-6.106;2023-02-14T14:29:29;102250.31;;;23.78;46.71
58698;BME280;44475;53.206;-6.106;2023-02-14T14:31:56;102249.47;;;23.78;46.81
58698;BME280;44475;53.206;-6.106;2023-02-14T14:34:26;102242.69;;;23.84;46.76
58698;BME280;44475;53.206;-6.106;2023-02-14T14:37:17;102240.88;;;23.69;47.17
58698;BME280;44475;53.206;-6.106;2023-02-14T14:39:57;102232.47;;;23.73;47.39
58698;BME280;44475;53.206;-6.106;2023-02-14T14:42:27;102228.66;;;23.75;47.04
58698;BME280;44475;53.206;-6.106;2023-02-14T14:44:56;102235.03;;;23.61;47.59
58698;BME280;44475;53.206;-6.106;2023-02-14T14:47:27;102223.72;;;23.81;47.18
58698;BME280;44475;53.206;-6.106;2023-02-14T14:49:59;102222.34;;;23.88;46.66
58698;BME280;44475;53.206;-6.106;2023-02-14T14:52:35;102224.09;;;24.02;46.47
58698;BME280;44475;53.206;-6.106;2023-02-14T14:55:05;102216.41;;;23.94;46.09
58698;BME280;44475;53.206;-6.106;2023-02-14T14:57:35;102228.78;;;24.00;46.04
58698;BME280;44475;53.206;-6.106;2023-02-14T15:05:37;102220.25;;;24.05;45.76
58698;BME280;44475;53.206;-6.106;2023-02-14T15:11:22;102220.25;;;23.92;45.66
58698;BME280;44475;53.206;-6.106;2023-02-14T15:14:18;102209.94;;;23.82;46.19
58698;BME280;44475;53.206;-6.106;2023-02-14T15:16:52;102217.63;;;23.62;46.59
58698;BME280;44475;53.206;-6.106;2023-02-14T15:19:31;102210.16;;;23.51;47.10
58698;BME280;44475;53.206;-6.106;2023-02-14T15:24:58;102210.84;;;23.55;47.31
58698;BME280;44475;53.206;-6.106;2023-02-14T15:27:26;102209.72;;;23.57;47.21
58698;BME280;44475;53.206;-6.106;2023-02-14T15:30:02;102203.63;;;23.54;47.61
58698;BME280;44475;53.206;-6.106;2023-02-14T15:32:34;102190.22;;;23.64;46.95
58698;BME280;44475;53.206;-6.106;2023-02-14T15:35:04;102204.66;;;23.66;47.18
58698;BME280;44475;53.206;-6.106;2023-02-14T15:37:32;102200.63;;;23.72;46.89
58698;BME280;44475;53.206;-6.106;2023-02-14T15:39:58;102202.19;;;23.61;47.21
58698;BME280;44475;53.206;-6.106;2023-02-14T15:42:30;102196.16;;;23.84;46.58
58698;BME280;44475;53.206;-6.106;2023-02-14T15:47:54;102189.00;;;23.68;46.73